Time;durP1;ratioP1;P1;durP2;ratioP2;P2;SDS_P1;SDS_P2;PMS_P1;PMS_P2;Temp;Humidity;BMP_temperature;BMP_pressure;BME280_temperature;BME280_humidity;BME280_pressure;Samples;Min_cycle;Max_cycle;Signal;HPM_P1;HPM_P2
2022/06/24 00:00:09;;;;;;;0.77;0.77;;;;;;;23.35;38.34;100570.22;5053345;28;20108;-64
2022/06/24 00:02:35;;;;;;;0.90;0.90;;;;;;;23.33;38.63;100572.38;5054098;28;20018;-64
2022/06/24 00:05:02;;;;;;;0.73;0.73;;;;;;;23.34;38.45;100571.31;5051974;28;20033;-64
2022/06/24 00:07:28;;;;;;;1.00;1.00;;;;;;;23.30;38.45;100566.63;5053150;28;20032;-64
2022/06/24 00:09:53;;;;;;;0.90;0.90;;;;;;;23.35;38.37;100569.38;5052941;28;20467;-66
2022/06/24 00:12:20;;;;;;;0.70;0.70;;;;;;;23.33;38.38;100572.38;5053194;28;20029;-65
2022/06/24 00:14:56;;;;;;;0.80;0.80;;;;;;;23.34;38.69;100568.56;5053222;28;20096;-65
2022/06/24 00:17:22;;;;;;;0.80;0.80;;;;;;;23.35;38.22;100580.28;5052811;28;20074;-65
2022/06/24 00:19:55;;;;;;;0.63;0.63;;;;;;;23.31;38.33;100580.00;5039190;28;20025;-65
2022/06/24 00:22:20;;;;;;;0.82;0.82;;;;;;;23.33;38.36;100577.03;5072922;28;20051;-65
2022/06/24 00:24:46;;;;;;;1.13;0.95;;;;;;;23.34;38.06;100586.84;5071416;28;20040;-66
2022/06/24 00:27:25;;;;;;;0.90;0.90;;;;;;;23.32;38.46;100589.00;5072995;28;20032;-65
2022/06/24 00:29:50;;;;;;;0.60;0.60;;;;;;;23.33;38.15;100596.91;5073057;28;20366;-65
2022/06/24 00:32:16;;;;;;;1.05;0.95;;;;;;;23.29;38.04;100593.09;5072698;28;20033;-65
2022/06/24 00:34:41;;;;;;;0.73;0.73;;;;;;;23.32;38.20;100598.03;5073029;28;20071;-65
2022/06/24 00:37:23;;;;;;;0.70;0.70;;;;;;;23.32;38.46;100598.03;5072657;28;20067;-66
2022/06/24 00:39:49;;;;;;;1.20;0.80;;;;;;;23.29;38.13;100598.56;5072647;28;20103;-65
2022/06/24 00:42:16;;;;;;;0.70;0.70;;;;;;;23.31;38.08;100601.81;5073073;28;20072;-65
2022/06/24 00:44:45;;;;;;;0.70;0.70;;;;;;;23.31;38.08;100607.28;5072601;28;20024;-65
2022/06/24 00:47:11;;;;;;;0.70;0.70;;;;;;;23.34;38.27;100605.94;5071666;28;20025;-65
2022/06/24 00:49:36;;;;;;;0.70;0.70;;;;;;;23.32;38.11;100603.47;5072574;28;20094;-65
2022/06/24 00:52:08;;;;;;;0.80;0.80;;;;;;;23.31;38.16;100595.56;5072565;28;20021;-65
2022/06/24 00:54:33;;;;;;;0.75;0.75;;;;;;;23.30;38.25;100593.91;5071305;28;20583;-65
2022/06/24 00:56:59;;;;;;;0.90;0.90;;;;;;;23.29;38.04;100604.00;5071565;28;20054;-65
2022/06/24 00:59:25;;;;;;;0.95;0.85;;;;;;;23.31;38.10;100607.28;5072794;28;20462;-65
2022/06/24 01:01:51;;;;;;;0.90;0.90;;;;;;;23.29;38.29;100605.91;5074015;28;20372;-65
2022/06/24 01:04:16;;;;;;;0.82;0.82;;;;;;;23.27;38.17;100606.19;5075984;28;20062;-65
2022/06/24 01:06:43;;;;;;;0.82;0.82;;;;;;;23.29;38.15;100606.72;5076183;28;20028;-65
2022/06/24 01:09:09;;;;;;;0.70;0.70;;;;;;;23.30;37.87;100611.13;5076624;28;20126;-65
2022/06/24 01:11:37;;;;;;;0.85;0.82;;;;;;;23.31;38.04;100601.00;5075817;28;20102;-65
2022/06/24 01:14:02;;;;;;;0.80;0.80;;;;;;;23.27;38.11;100606.19;5076329;28;20099;-65
2022/06/24 01:16:28;;;;;;;0.73;0.73;;;;;;;23.28;37.78;100605.09;5075876;28;20032;-65
2022/06/24 01:19:00;;;;;;;0.70;0.70;;;;;;;23.28;38.06;100596.09;5076047;28;20078;-64
2022/06/24 01:21:42;;;;;;;0.80;0.80;;;;;;;23.27;38.05;100598.00;5058620;28;20025;-65
2022/06/24 01:24:12;;;;;;;0.98;0.98;;;;;;;23.26;38.03;100590.91;5055633;28;20116;-65
2022/06/24 01:26:41;;;;;;;0.88;0.88;;;;;;;23.24;38.09;100591.16;5056284;28;20338;-65
2022/06/24 01:29:06;;;;;;;0.80;0.80;;;;;;;23.26;37.98;100599.09;5055852;28;20191;-65
2022/06/24 01:31:32;;;;;;;0.80;0.80;;;;;;;23.27;38.16;100598.00;5055796;28;20047;-65
2022/06/24 01:33:57;;;;;;;0.73;0.73;;;;;;;23.25;38.16;100609.19;5055466;28;20391;-65
2022/06/24 01:36:23;;;;;;;0.75;0.75;;;;;;;23.26;37.80;100607.25;5055759;28;20033;-64
2022/06/24 01:38:48;;;;;;;0.80;0.80;;;;;;;23.27;37.75;100605.34;5055416;28;20424;-65
2022/06/24 01:41:14;;;;;;;0.88;0.88;;;;;;;23.27;37.91;100600.72;5055598;28;20029;-65
2022/06/24 01:43:39;;;;;;;0.90;0.90;;;;;;;23.25;37.84;100600.19;5055676;28;20067;-66
2022/06/24 01:46:06;;;;;;;0.90;0.90;;;;;;;23.24;37.63;100598.53;5055479;28;20029;-65
2022/06/24 01:48:31;;;;;;;0.80;0.80;;;;;;;23.24;37.84;100606.72;5055559;28;20051;-65
2022/06/24 01:50:57;;;;;;;0.80;0.80;;;;;;;23.25;37.71;100600.19;5055478;28;20451;-64
2022/06/24 01:53:22;;;;;;;0.90;0.90;;;;;;;23.25;37.56;100605.63;5053836;28;20339;-64
2022/06/24 01:55:48;;;;;;;0.90;0.90;;;;;;;23.25;37.50;100619.28;5055471;28;20482;-64
2022/06/24 01:58:13;;;;;;;1.10;1.00;;;;;;;23.26;37.56;100620.91;5054987;28;20490;-64
2022/06/24 02:00:38;;;;;;;0.90;0.90;;;;;;;23.25;37.58;100613.81;5055641;28;20036;-65
2022/06/24 02:03:05;;;;;;;0.80;0.80;;;;;;;23.23;37.41;100616.81;5054828;28;20066;-65
2022/06/24 02:05:30;;;;;;;0.80;0.80;;;;;;;23.22;37.58;100626.06;5055243;28;20029;-65
2022/06/24 02:07:55;;;;;;;1.10;1.10;;;;;;;23.23;37.44;100630.44;5054901;28;20048;-65
2022/06/24 02:15:49;;;;;;;0.70;0.70;;;;;;;23.23;37.52;100638.63;5055080;28;20043;-65
2022/06/24 02:18:14;;;;;;;0.90;0.90;;;;;;;23.23;37.65;100635.06;5054856;28;20021;-66
2022/06/24 02:20:40;;;;;;;0.93;0.93;;;;;;;23.24;37.43;100631.25;5063852;28;20029;-65
2022/06/24 02:23:05;;;;;;;0.90;0.90;;;;;;;23.24;37.57;100625.81;5074780;28;20109;-65
2022/06/24 02:25:31;;;;;;;0.90;0.80;;;;;;;23.23;37.52;100627.72;5074174;28;20475;-66
2022/06/24 02:27:56;;;;;;;0.63;0.63;;;;;;;23.23;37.37;100630.44;5074528;28;20028;-65
2022/06/24 02:30:22;;;;;;;0.70;0.70;;;;;;;23.24;37.45;100617.63;5074708;28;20095;-65
2022/06/24 02:32:47;;;;;;;1.00;0.90;;;;;;;23.23;37.64;100616.81;5074298;28;20025;-66
2022/06/24 02:35:13;;;;;;;0.80;0.80;;;;;;;23.24;37.44;100617.63;5074531;28;20463;-66
2022/06/24 02:37:38;;;;;;;0.90;0.90;;;;;;;23.23;37.54;100621.41;5074519;28;20078;-65
2022/06/24 02:42:54;;;;;;;1.00;1.00;;;;;;;23.22;37.63;100608.88;5074205;28;20086;-65
2022/06/24 02:45:20;;;;;;;1.00;1.00;;;;;;;23.23;37.85;100616.81;5074338;28;20040;-65
2022/06/24 02:47:45;;;;;;;0.80;0.80;;;;;;;23.23;37.81;100621.41;5074261;28;20024;-65
2022/06/24 02:50:10;;;;;;;0.90;0.90;;;;;;;23.20;38.15;100609.16;5074315;28;20035;-65
2022/06/24 02:52:36;;;;;;;0.77;0.77;;;;;;;23.22;37.93;100606.16;5074211;28;20386;-64
2022/06/24 02:55:01;;;;;;;0.77;0.77;;;;;;;23.21;37.91;100613.50;5073859;28;20055;-64
2022/06/24 02:57:27;;;;;;;0.90;0.90;;;;;;;23.22;38.16;100612.44;5074381;28;20044;-64
2022/06/24 02:59:52;;;;;;;0.77;0.77;;;;;;;23.21;38.17;100615.41;5073776;28;20032;-65
2022/06/24 03:02:18;;;;;;;0.73;0.73;;;;;;;23.22;38.26;100611.63;5073924;28;20024;-66
2022/06/24 03:04:43;;;;;;;0.90;0.90;;;;;;;23.21;38.29;100607.25;5074063;28;20031;-66
2022/06/24 03:07:08;;;;;;;0.90;0.90;;;;;;;23.21;38.49;100620.88;5073772;28;20020;-65
2022/06/24 03:09:34;;;;;;;0.88;0.88;;;;;;;23.22;38.55;100626.06;5073754;28;20027;-65
2022/06/24 03:11:59;;;;;;;0.80;0.80;;;;;;;23.21;38.51;100621.69;5073763;28;20027;-65
2022/06/24 03:14:25;;;;;;;0.80;0.80;;;;;;;23.22;38.54;100625.25;5073758;28;20070;-65
2022/06/24 03:16:50;;;;;;;1.10;1.00;;;;;;;23.21;38.82;100620.88;5074002;28;20105;-65
2022/06/24 03:19:15;;;;;;;0.85;0.85;;;;;;;23.21;38.64;100613.50;5074495;28;20443;-65
2022/06/24 03:21:41;;;;;;;0.85;0.85;;;;;;;23.21;38.78;100624.41;5056465;28;20387;-65
2022/06/24 03:24:07;;;;;;;0.90;0.90;;;;;;;23.21;38.84;100624.41;5051592;28;20045;-65
2022/06/24 03:26:32;;;;;;;2.05;1.00;;;;;;;23.21;38.81;100634.50;5054343;28;20413;-65
2022/06/24 03:28:58;;;;;;;0.82;0.82;;;;;;;23.21;38.93;100629.06;5053797;28;20421;-65
2022/06/24 03:31:23;;;;;;;0.70;0.70;;;;;;;23.21;39.16;100635.31;5053682;28;20043;-66
2022/06/24 03:33:48;;;;;;;0.82;0.82;;;;;;;23.22;39.03;100630.69;5053613;28;20032;-66
2022/06/24 03:36:14;;;;;;;0.80;0.80;;;;;;;23.21;39.30;100623.59;5053597;28;20031;-65
2022/06/24 03:38:39;;;;;;;0.90;0.90;;;;;;;23.21;39.37;100623.59;5053606;28;20021;-65
2022/06/24 03:41:05;;;;;;;0.98;0.98;;;;;;;23.19;39.29;100618.41;5053196;28;20044;-65
2022/06/24 03:43:30;;;;;;;0.80;0.80;;;;;;;23.21;39.39;100623.59;5053207;28;20020;-65
2022/06/24 03:46:02;;;;;;;1.23;1.10;;;;;;;23.20;39.29;100627.44;5053732;28;20021;-65
2022/06/24 03:48:28;;;;;;;0.95;0.90;;;;;;;23.20;39.77;100627.44;5053390;28;20035;-65
2022/06/24 03:50:54;;;;;;;0.90;0.90;;;;;;;23.20;39.53;100624.69;5053072;28;20475;-65
2022/06/24 03:53:19;;;;;;;0.90;0.90;;;;;;;23.19;39.67;100628.50;5053360;28;20060;-65
2022/06/24 03:55:51;;;;;;;1.00;1.00;;;;;;;23.19;39.62;100629.31;5053050;28;20017;-65
2022/06/24 03:58:17;;;;;;;0.98;0.98;;;;;;;23.19;39.82;100631.22;5053394;28;20021;-66
2022/06/24 04:00:43;;;;;;;0.90;0.90;;;;;;;23.19;39.78;100633.97;5053354;28;20025;-66
2022/06/24 04:03:08;;;;;;;0.90;0.90;;;;;;;23.20;40.05;100632.88;5053273;28;20090;-66
2022/06/24 04:05:34;;;;;;;0.80;0.80;;;;;;;23.20;40.15;100636.41;5053309;28;20021;-66
2022/06/24 04:07:59;;;;;;;0.80;0.80;;;;;;;23.18;40.25;100630.41;5052923;28;20036;-65
2022/06/24 04:10:25;;;;;;;1.00;1.00;;;;;;;23.18;40.06;100635.03;5052966;28;20025;-65
2022/06/24 04:12:51;;;;;;;1.00;1.00;;;;;;;23.18;40.04;100632.31;5053182;28;20044;-65
2022/06/24 04:15:17;;;;;;;1.00;1.00;;;;;;;23.19;40.08;100634.75;5053245;28;20368;-65
2022/06/24 04:17:43;;;;;;;0.93;0.93;;;;;;;23.19;40.18;100639.41;5053167;28;20104;-65
2022/06/24 04:20:09;;;;;;;0.80;0.80;;;;;;;23.18;40.43;100635.03;5056738;28;20100;-66
2022/06/24 04:22:34;;;;;;;0.80;0.80;;;;;;;23.19;40.31;100628.50;5073422;28;20451;-66
2022/06/24 04:25:00;;;;;;;0.90;0.90;;;;;;;23.19;40.38;100644.84;5072721;28;20505;-65
2022/06/24 04:27:25;;;;;;;1.02;1.02;;;;;;;23.18;40.40;100635.88;5073030;28;20028;-65
2022/06/24 04:29:51;;;;;;;1.30;1.02;;;;;;;23.19;40.58;100636.69;5072741;28;20502;-65
2022/06/24 04:32:16;;;;;;;1.00;1.00;;;;;;;23.18;40.64;100641.31;5073083;28;20021;-65
2022/06/24 04:34:42;;;;;;;1.00;1.00;;;;;;;23.18;40.53;100641.31;5072692;28;20466;-65
2022/06/24 04:37:07;;;;;;;1.08;1.05;;;;;;;23.19;40.45;100651.13;5076128;28;20047;-65
2022/06/24 04:39:33;;;;;;;0.93;0.93;;;;;;;23.19;40.52;100650.31;5076456;28;20025;-66
2022/06/24 04:41:58;;;;;;;1.08;1.08;;;;;;;23.19;40.70;100653.03;5076559;28;20375;-66
2022/06/24 04:44:24;;;;;;;0.82;0.82;;;;;;;23.20;40.57;100660.16;5076687;28;20021;-66
2022/06/24 04:46:49;;;;;;;0.98;0.98;;;;;;;23.19;40.79;100658.50;5076370;28;20469;-66
2022/06/24 04:49:15;;;;;;;0.98;0.98;;;;;;;23.18;40.59;100665.84;5076577;28;20016;-65
2022/06/24 04:51:40;;;;;;;0.70;0.70;;;;;;;23.19;40.82;100669.41;5076303;28;20477;-66
2022/06/24 04:54:06;;;;;;;0.95;0.95;;;;;;;23.19;40.71;100677.56;5076405;28;20082;-65
2022/06/24 04:56:31;;;;;;;0.70;0.70;;;;;;;23.20;40.73;100681.97;5076148;28;20038;-65
2022/06/24 04:58:56;;;;;;;0.80;0.80;;;;;;;23.20;40.72;100671.06;5076186;28;20028;-65
2022/06/24 05:01:22;;;;;;;0.90;0.90;;;;;;;23.20;40.63;100671.88;5076089;28;20021;-65
2022/06/24 05:03:47;;;;;;;1.00;0.98;;;;;;;23.22;41.06;100677.06;5074901;28;20029;-65
2022/06/24 05:06:13;;;;;;;1.00;0.90;;;;;;;23.22;40.62;100674.31;5076148;28;20037;-65
2022/06/24 05:08:38;;;;;;;1.00;1.00;;;;;;;23.20;40.70;100677.31;5076560;28;20033;-65
2022/06/24 05:11:05;;;;;;;1.00;1.00;;;;;;;23.20;40.79;100677.31;5076228;28;20029;-65
2022/06/24 05:13:30;;;;;;;0.90;0.90;;;;;;;23.19;41.19;100680.31;5075853;28;20108;-65
2022/06/24 05:15:58;;;;;;;0.95;0.95;;;;;;;23.20;41.07;100676.50;5075806;28;20020;-65
2022/06/24 05:18:23;;;;;;;1.00;1.00;;;;;;;23.18;40.92;100678.66;5074836;28;20074;-66
2022/06/24 05:20:48;;;;;;;0.95;0.95;;;;;;;23.18;41.38;100673.19;5067733;28;20422;-65
2022/06/24 05:23:14;;;;;;;0.90;0.90;;;;;;;23.20;41.22;100676.50;5055698;28;20029;-65
2022/06/24 05:25:39;;;;;;;0.95;0.95;;;;;;;23.21;41.05;100680.84;5055451;28;20037;-65
2022/06/24 05:28:05;;;;;;;0.90;0.90;;;;;;;23.18;41.03;100679.50;5055600;28;20071;-65
2022/06/24 05:30:30;;;;;;;0.90;0.90;;;;;;;23.17;41.36;100682.47;5056391;28;20121;-65
2022/06/24 05:32:56;;;;;;;1.10;1.10;;;;;;;23.18;41.35;100682.22;5055809;28;20021;-65
2022/06/24 05:35:21;;;;;;;0.95;0.95;;;;;;;23.15;41.45;100684.66;5056141;28;20025;-65
2022/06/24 05:37:47;;;;;;;1.13;1.02;;;;;;;23.16;41.53;100686.28;5055703;28;20055;-65
2022/06/24 05:40:12;;;;;;;0.90;0.90;;;;;;;23.16;41.24;100680.81;5055400;28;20025;-65
2022/06/24 05:42:37;;;;;;;1.17;1.08;;;;;;;23.15;41.24;100681.94;5055636;28;20024;-66
2022/06/24 05:45:03;;;;;;;0.80;0.80;;;;;;;23.18;41.17;100695.00;5055520;28;20405;-66
2022/06/24 05:47:28;;;;;;;0.80;0.80;;;;;;;23.20;41.42;100693.69;5054354;28;20379;-66
2022/06/24 05:49:54;;;;;;;0.88;0.88;;;;;;;23.19;41.49;100692.03;5055187;28;20025;-65
2022/06/24 05:55:02;;;;;;;1.00;1.00;;;;;;;23.22;41.23;100696.13;5053961;28;20037;-65
2022/06/24 05:55:05;;;;;;;0.95;0.95;;;;;;;23.20;41.70;100688.22;5055129;28;20043;-65
2022/06/24 05:57:30;;;;;;;1.13;1.13;;;;;;;23.18;41.85;100697.72;5055111;28;20029;-66
2022/06/24 05:59:56;;;;;;;0.88;0.88;;;;;;;23.16;41.66;100686.28;5055148;28;20079;-65
2022/06/24 06:02:22;;;;;;;0.88;0.88;;;;;;;23.18;41.80;100689.56;5055066;28;20059;-65
2022/06/24 06:04:48;;;;;;;0.95;0.93;;;;;;;23.20;41.71;100696.41;5055042;28;20033;-64
2022/06/24 06:07:14;;;;;;;0.98;0.98;;;;;;;23.17;41.77;100696.09;5055174;28;20124;-65
2022/06/24 06:09:39;;;;;;;0.93;0.93;;;;;;;23.21;41.78;100684.38;5055231;28;20033;-65
2022/06/24 06:12:05;;;;;;;1.00;1.00;;;;;;;23.22;41.83;100690.69;5055137;28;20029;-65
2022/06/24 06:14:30;;;;;;;0.90;0.90;;;;;;;23.18;42.06;100692.28;5055172;28;20021;-65
2022/06/24 06:16:56;;;;;;;0.93;0.93;;;;;;;23.20;42.33;100692.88;5054649;28;20025;-65
2022/06/24 06:19:21;;;;;;;1.30;1.20;;;;;;;23.21;42.24;100694.47;5054922;28;20029;-65
2022/06/24 06:21:46;;;;;;;1.00;1.00;;;;;;;23.18;42.21;100701.31;5069727;28;20017;-65
2022/06/24 06:24:12;;;;;;;1.20;1.10;;;;;;;23.18;42.50;100697.72;5074744;28;20086;-64
2022/06/24 06:26:37;;;;;;;1.25;1.15;;;;;;;23.18;42.34;100695.00;5074440;28;20020;-65
2022/06/24 06:29:04;;;;;;;0.90;0.90;;;;;;;23.17;42.47;100698.84;5074384;28;20103;-66
2022/06/24 06:31:29;;;;;;;0.80;0.80;;;;;;;23.20;42.23;100704.56;5074721;28;20020;-66
2022/06/24 06:33:55;;;;;;;1.08;1.08;;;;;;;23.17;42.74;100698.84;5074275;28;20032;-65
2022/06/24 06:36:21;;;;;;;0.98;0.98;;;;;;;23.16;42.43;100686.28;5074222;28;20033;-65
2022/06/24 06:38:46;;;;;;;1.08;1.08;;;;;;;23.20;42.63;100690.13;5074485;28;20025;-66
2022/06/24 06:41:15;;;;;;;0.90;0.90;;;;;;;23.19;42.70;100691.22;5074225;28;20455;-65
2022/06/24 06:43:41;;;;;;;1.02;1.00;;;;;;;23.17;42.89;100683.28;5074444;28;20028;-65
2022/06/24 06:46:12;;;;;;;1.10;1.00;;;;;;;23.22;42.20;100687.97;5074332;28;20482;-64
2022/06/24 06:48:40;;;;;;;1.00;1.00;;;;;;;23.23;42.14;100687.69;5074367;28;20157;-65
2022/06/24 06:51:06;;;;;;;0.90;0.90;;;;;;;23.24;42.58;100688.50;5073957;28;20052;-65
2022/06/24 06:53:31;;;;;;;0.90;0.90;;;;;;;23.19;42.38;100666.66;5073916;28;20028;-66
2022/06/24 06:55:57;;;;;;;0.80;0.80;;;;;;;23.24;42.68;100680.34;5073864;28;20025;-65
2022/06/24 06:58:22;;;;;;;1.02;1.02;;;;;;;23.25;42.36;100684.72;5073782;28;20024;-65
2022/06/24 07:00:48;;;;;;;1.00;1.00;;;;;;;23.25;42.60;100673.81;5074228;28;20025;-65
2022/06/24 07:03:13;;;;;;;1.00;1.00;;;;;;;23.25;42.49;100679.25;5073801;28;20470;-65
2022/06/24 07:05:39;;;;;;;1.00;1.00;;;;;;;23.26;42.45;100680.88;5074118;28;20134;-65
2022/06/24 07:08:05;;;;;;;1.10;1.10;;;;;;;23.26;42.87;100686.34;5073818;28;20039;-65
2022/06/24 07:10:30;;;;;;;1.25;1.15;;;;;;;23.27;42.85;100687.16;5073700;28;20088;-65
2022/06/24 07:12:56;;;;;;;0.98;0.98;;;;;;;23.27;42.92;100679.81;5073922;28;20104;-66
2022/06/24 07:15:21;;;;;;;0.90;0.90;;;;;;;23.25;42.73;100680.06;5073873;28;20036;-66
2022/06/24 07:17:48;;;;;;;1.08;1.02;;;;;;;23.27;42.77;100679.81;5073640;28;20044;-66
2022/06/24 07:20:13;;;;;;;1.00;1.00;;;;;;;23.29;42.88;100683.09;5072371;28;20095;-66
2022/06/24 07:22:40;;;;;;;1.20;1.10;;;;;;;23.31;42.91;100688.28;5053518;28;20029;-65
2022/06/24 07:25:06;;;;;;;1.00;1.00;;;;;;;23.31;42.96;100688.28;5053334;28;20087;-64
2022/06/24 07:27:31;;;;;;;1.00;1.00;;;;;;;23.30;43.19;100687.47;5053626;28;20028;-65
2022/06/24 07:29:58;;;;;;;0.75;0.75;;;;;;;23.32;43.11;100690.75;5053505;28;20053;-66
2022/06/24 07:32:23;;;;;;;1.40;1.30;;;;;;;23.28;42.98;100681.44;5053401;28;20104;-65
2022/06/24 07:34:49;;;;;;;1.13;1.10;;;;;;;23.30;43.40;100681.16;5053317;28;20021;-65
2022/06/24 07:37:14;;;;;;;1.00;1.00;;;;;;;23.31;43.10;100689.09;5053569;28;20029;-65
2022/06/24 07:39:40;;;;;;;1.00;1.00;;;;;;;23.32;43.22;100695.34;5053527;28;20467;-65
2022/06/24 07:42:06;;;;;;;1.17;1.10;;;;;;;23.33;43.46;100686.91;5053531;28;20455;-65
2022/06/24 07:44:31;;;;;;;1.15;1.15;;;;;;;23.32;43.35;100685.28;5053554;28;20033;-65
2022/06/24 07:46:57;;;;;;;1.13;1.02;;;;;;;23.32;43.36;100685.28;5053394;28;20459;-65
2022/06/24 07:49:22;;;;;;;1.02;1.00;;;;;;;23.34;43.46;100690.47;5053463;28;20486;-64
2022/06/24 07:51:48;;;;;;;0.95;0.95;;;;;;;23.32;43.18;100696.19;5053446;28;20331;-64
2022/06/24 07:54:13;;;;;;;1.20;1.10;;;;;;;23.34;43.31;100688.56;5053331;28;20415;-64
2022/06/24 07:56:57;;;;;;;1.30;1.20;;;;;;;23.34;43.35;100694.00;5053428;28;20456;-65
2022/06/24 07:59:34;;;;;;;0.90;0.90;;;;;;;23.36;43.06;100696.47;5053023;28;20017;-65
2022/06/24 08:02:00;;;;;;;1.30;1.20;;;;;;;23.35;43.24;100692.94;5053073;28;20032;-65
2022/06/24 08:04:27;;;;;;;1.20;1.10;;;;;;;23.34;43.37;100687.75;5053385;28;20029;-65
2022/06/24 08:06:53;;;;;;;1.00;1.00;;;;;;;23.35;43.29;100692.94;5053242;28;20108;-65
2022/06/24 08:09:23;;;;;;;1.13;1.08;;;;;;;23.37;43.59;100690.75;5053606;28;20025;-65
2022/06/24 08:11:48;;;;;;;1.13;1.02;;;;;;;23.38;43.23;100691.56;5056324;28;20040;-65
2022/06/24 08:14:14;;;;;;;1.05;1.00;;;;;;;23.36;43.22;100685.56;5056934;28;20032;-65
2022/06/24 08:16:40;;;;;;;1.13;1.02;;;;;;;23.35;43.38;100684.75;5056942;28;20078;-65
2022/06/24 08:19:06;;;;;;;1.00;1.00;;;;;;;23.36;43.47;100691.84;5057151;28;20032;-65
2022/06/24 08:21:31;;;;;;;1.33;1.20;;;;;;;23.38;43.32;100689.66;5068081;28;20021;-65
2022/06/24 08:23:57;;;;;;;1.10;1.00;;;;;;;23.38;43.29;100697.03;5076600;28;20408;-65
2022/06/24 08:26:22;;;;;;;1.05;1.05;;;;;;;23.41;43.15;100691.84;5077039;28;20056;-64
2022/06/24 08:28:48;;;;;;;1.23;1.13;;;;;;;23.38;43.35;100686.94;5077111;28;20040;-65
2022/06/24 08:31:13;;;;;;;1.20;1.10;;;;;;;23.41;43.27;100694.59;5076699;28;20043;-65
2022/06/24 08:33:39;;;;;;;1.25;1.15;;;;;;;23.40;43.25;100692.97;5076710;28;20024;-65
2022/06/24 08:36:05;;;;;;;1.30;1.20;;;;;;;23.40;43.53;100692.97;5076899;28;20029;-65
2022/06/24 08:38:30;;;;;;;1.25;1.17;;;;;;;23.40;43.49;100694.84;5076864;28;20095;-65
2022/06/24 08:40:56;;;;;;;0.88;0.88;;;;;;;23.40;43.39;100698.41;5076819;28;20459;-64
2022/06/24 08:43:22;;;;;;;1.30;1.20;;;;;;;23.41;43.41;100691.84;5075606;28;20105;-64
2022/06/24 08:45:48;;;;;;;1.00;1.00;;;;;;;23.42;43.46;100690.78;5076781;28;20466;-65
2022/06/24 08:48:13;;;;;;;1.17;1.13;;;;;;;23.42;43.39;100688.06;5076613;28;20029;-65
2022/06/24 08:50:39;;;;;;;0.90;0.90;;;;;;;23.45;43.43;100697.59;5076706;28;20028;-65
2022/06/24 08:53:09;;;;;;;1.08;1.05;;;;;;;23.43;42.90;100695.13;5076595;28;20522;-65
2022/06/24 08:55:38;;;;;;;1.10;1.00;;;;;;;23.46;43.07;100695.69;5076527;28;20044;-64
2022/06/24 08:58:07;;;;;;;1.35;1.25;;;;;;;23.42;43.06;100696.25;5076485;28;20056;-65
2022/06/24 09:00:32;;;;;;;1.40;1.30;;;;;;;23.43;43.50;100688.88;5076464;28;20025;-65
2022/06/24 09:02:58;;;;;;;1.20;1.10;;;;;;;23.48;43.12;100699.00;5076467;28;20025;-65
2022/06/24 09:05:28;;;;;;;1.30;1.20;;;;;;;23.47;43.63;100691.88;5076247;28;20386;-64
2022/06/24 09:08:23;;;;;;;1.17;1.08;;;;;;;23.46;43.37;100684.78;5075066;28;20085;-65
2022/06/24 09:11:07;;;;;;;1.15;1.13;;;;;;;23.48;43.64;100694.34;5073460;28;20154;-65
2022/06/24 09:13:43;;;;;;;1.30;1.20;;;;;;;23.51;43.15;100693.81;5076387;28;20078;-64
2022/06/24 09:16:08;;;;;;;1.30;1.20;;;;;;;23.49;43.51;100696.00;5076757;28;20102;-65
2022/06/24 09:18:40;;;;;;;1.20;1.10;;;;;;;23.49;43.02;100689.69;5077307;28;20104;-65
2022/06/24 09:21:06;;;;;;;1.10;1.10;;;;;;;23.47;43.65;100698.16;5069595;28;20028;-65
2022/06/24 09:23:31;;;;;;;1.13;1.10;;;;;;;23.50;43.64;100691.34;5054591;28;20029;-65
2022/06/24 09:26:00;;;;;;;1.48;1.38;;;;;;;23.49;43.42;100695.16;5056323;28;20048;-65
2022/06/24 09:28:29;;;;;;;1.10;1.00;;;;;;;23.46;43.86;100696.53;5056290;28;20028;-65
2022/06/24 09:31:04;;;;;;;1.33;1.23;;;;;;;23.44;43.91;100704.97;5056284;28;20108;-64
2022/06/24 09:33:38;;;;;;;1.00;1.00;;;;;;;23.42;43.89;100701.69;5055822;28;20109;-65
2022/06/24 09:36:06;;;;;;;1.30;1.20;;;;;;;23.47;44.01;100700.06;5055773;28;20041;-64
2022/06/24 09:38:31;;;;;;;1.00;1.00;;;;;;;23.45;44.10;100689.41;5056153;28;20025;-64
2022/06/24 09:41:01;;;;;;;1.30;1.20;;;;;;;23.39;44.15;100701.41;5056558;28;20096;-64
2022/06/24 09:43:30;;;;;;;1.40;1.30;;;;;;;23.38;44.30;100700.56;5056117;28;20470;-64
2022/06/24 09:45:55;;;;;;;1.13;1.10;;;;;;;23.33;44.53;100697.81;5056422;28;20021;-64
2022/06/24 09:48:32;;;;;;;1.45;1.35;;;;;;;23.37;44.56;100698.94;5056392;28;20083;-65
2022/06/24 09:51:02;;;;;;;1.27;1.20;;;;;;;23.33;44.57;100703.28;5056275;28;20054;-65
2022/06/24 09:53:28;;;;;;;0.95;0.95;;;;;;;23.30;44.78;100697.53;5056159;28;20025;-65
2022/06/24 09:55:54;;;;;;;1.23;1.13;;;;;;;23.26;45.26;100697.25;5056290;28;20017;-65
2022/06/24 09:58:20;;;;;;;1.30;1.20;;;;;;;23.26;44.90;100702.69;5056570;28;20368;-65
2022/06/24 10:00:46;;;;;;;1.20;1.10;;;;;;;23.21;45.10;100689.84;5056409;28;20021;-65
2022/06/24 10:03:13;;;;;;;1.20;1.10;;;;;;;23.23;45.16;100697.75;5055991;28;20387;-64
2022/06/24 10:05:46;;;;;;;1.10;1.10;;;;;;;23.23;45.39;100692.31;5056072;28;20020;-64
2022/06/24 10:08:16;;;;;;;1.45;1.35;;;;;;;23.27;45.35;100687.16;5056404;28;20036;-64
2022/06/24 10:10:45;;;;;;;1.30;1.20;;;;;;;23.21;45.57;100692.56;5056636;28;20044;-64
2022/06/24 10:13:18;;;;;;;1.90;1.30;;;;;;;23.18;45.47;100684.94;5055771;28;20100;-63
2022/06/24 10:15:43;;;;;;;1.10;1.10;;;;;;;23.14;45.71;100688.44;5055653;28;20025;-66
2022/06/24 10:18:09;;;;;;;1.48;1.38;;;;;;;23.15;45.74;100690.09;5053804;28;20410;-65
2022/06/24 10:20:35;;;;;;;1.30;1.20;;;;;;;23.16;45.60;100692.56;5055685;28;20479;-64
2022/06/24 10:23:00;;;;;;;1.50;1.40;;;;;;;23.10;46.02;100688.16;5074772;28;20055;-66
2022/06/24 10:25:47;;;;;;;1.00;1.00;;;;;;;23.17;45.99;100690.66;5074147;28;20044;-65
2022/06/24 10:28:13;;;;;;;1.48;1.38;;;;;;;23.20;45.75;100688.22;5074606;28;20028;-66
2022/06/24 10:30:49;;;;;;;1.30;1.20;;;;;;;23.15;45.98;100680.00;5073653;28;20441;-65
2022/06/24 10:33:14;;;;;;;1.40;1.30;;;;;;;23.15;45.85;100684.66;5074067;28;20107;-65
2022/06/24 10:35:59;;;;;;;1.30;1.20;;;;;;;23.21;45.84;100686.31;5074579;28;20052;-65
2022/06/24 10:38:27;;;;;;;1.00;1.00;;;;;;;23.15;45.80;100680.00;5074083;28;20530;-65
2022/06/24 10:40:52;;;;;;;1.13;1.13;;;;;;;23.11;46.12;100692.53;5073311;28;20094;-65
2022/06/24 10:43:38;;;;;;;1.30;1.20;;;;;;;23.15;46.03;100692.84;5074618;28;20029;-65
2022/06/24 10:46:12;;;;;;;1.38;1.27;;;;;;;23.18;46.06;100674.03;5073906;28;20091;-65
2022/06/24 10:48:44;;;;;;;1.40;1.30;;;;;;;23.15;45.98;100674.56;5073809;28;20020;-65
2022/06/24 10:51:20;;;;;;;1.30;1.20;;;;;;;23.10;46.26;100673.72;5073898;28;20056;-65
2022/06/24 10:54:06;;;;;;;1.40;1.30;;;;;;;23.12;46.35;100687.91;5073717;28;20016;-65
2022/06/24 10:56:41;;;;;;;1.23;1.13;;;;;;;23.10;46.29;100681.91;5073797;28;20067;-65
2022/06/24 10:59:06;;;;;;;1.52;1.42;;;;;;;23.13;46.02;100678.63;5073766;28;20062;-65
2022/06/24 11:01:32;;;;;;;1.40;1.30;;;;;;;23.10;46.23;100681.91;5073672;28;20108;-65
2022/06/24 11:04:02;;;;;;;1.20;1.10;;;;;;;23.13;46.39;100675.91;5073416;28;20055;-65
2022/06/24 11:06:27;;;;;;;1.27;1.17;;;;;;;23.10;46.40;100687.34;5072662;28;20020;-65
2022/06/24 11:08:53;;;;;;;1.20;1.10;;;;;;;23.10;46.54;100677.25;5074132;28;20047;-65
2022/06/24 11:11:28;;;;;;;1.08;1.00;;;;;;;23.09;46.56;100674.78;5073387;28;20324;-65
2022/06/24 11:13:53;;;;;;;1.30;1.20;;;;;;;23.08;46.65;100679.44;5073726;28;20090;-66
2022/06/24 11:16:19;;;;;;;1.40;1.30;;;;;;;23.13;46.39;100678.63;5073651;28;20445;-66
2022/06/24 11:18:48;;;;;;;1.30;1.20;;;;;;;23.09;46.56;100675.59;5073684;28;20024;-66
2022/06/24 11:21:17;;;;;;;1.33;1.23;;;;;;;23.10;46.50;100680.00;5050685;28;20028;-65
2022/06/24 11:23:42;;;;;;;1.20;1.10;;;;;;;23.11;46.64;100680.78;5053420;28;20045;-65
2022/06/24 11:26:15;;;;;;;1.02;1.02;;;;;;;23.18;46.60;100679.50;5035531;28;20025;-65
2022/06/24 11:28:41;;;;;;;1.10;1.10;;;;;;;23.17;46.63;100677.03;5053168;28;20036;-65
2022/06/24 11:31:22;;;;;;;1.40;1.30;;;;;;;23.12;46.64;100679.72;5053140;28;20534;-65